Time;durP1;ratioP1;P1;durP2;ratioP2;P2;SDS_P1;SDS_P2;PMS_P1;PMS_P2;Temp;Humidity;BMP_temperature;BMP_pressure;BME280_temperature;BME280_humidity;BME280_pressure;Samples;Min_cycle;Max_cycle;Signal;HPM_P1;HPM_P2
2022/09/16 00:01:50;;;;;;;2.70;1.63;;;12.10;99.90;;;;;;5040991;28;20466;-73
2022/09/16 00:04:49;;;;;;;2.53;1.60;;;12.10;99.90;;;;;;5040155;28;20475;-73
2022/09/16 00:07:57;;;;;;;2.63;1.70;;;12.10;99.90;;;;;;5046120;28;20981;-72
2022/09/16 00:11:09;;;;;;;4.83;1.70;;;12.00;99.90;;;;;;5042541;28;20482;-73
2022/09/16 00:14:18;;;;;;;3.70;1.93;;;12.00;99.90;;;;;;5040274;28;21058;-73
2022/09/16 00:17:21;;;;;;;;;;;;;;;;;;;;;
2022/09/16 00:20:22;;;;;;;3.40;1.80;;;12.00;99.90;;;;;;5043072;28;20481;-73
2022/09/16 00:24:00;;;;;;;2.33;1.50;;;12.00;99.90;;;;;;5061898;28;20854;-73
2022/09/16 00:26:59;;;;;;;2.43;1.30;;;12.00;99.90;;;;;;5066802;28;20800;-73
2022/09/16 00:30:30;;;;;;;4.63;1.80;;;12.00;99.90;;;;;;5058378;28;20446;-73
2022/09/16 00:33:38;;;;;;;4.37;1.80;;;12.00;99.90;;;;;;5065570;28;20469;-73
2022/09/16 00:36:58;;;;;;;3.30;1.93;;;12.00;99.90;;;;;;5063318;28;21291;-72
2022/09/16 00:40:06;;;;;;;4.80;2.40;;;12.00;99.90;;;;;;5056955;28;20454;-73
2022/09/16 00:43:31;;;;;;;3.10;2.03;;;12.10;99.90;;;;;;5043601;28;20843;-73
2022/09/16 00:50:04;;;;;;;3.30;1.80;;;12.20;99.90;;;;;;5007465;28;20534;-73
2022/09/16 00:53:31;;;;;;;3.07;1.53;;;12.10;99.90;;;;;;5083106;28;20483;-72
2022/09/16 01:00:02;;;;;;;2.57;1.60;;;12.10;99.90;;;;;;5081710;28;20459;-73
2022/09/16 01:03:28;;;;;;;3.23;1.77;;;12.10;99.90;;;;;;5121085;28;20547;-73
2022/09/16 01:07:01;;;;;;;2.70;1.63;;;12.10;99.90;;;;;;5114095;27;20836;-73
2022/09/16 01:10:05;;;;;;;3.07;1.63;;;12.00;99.90;;;;;;5116743;27;20547;-73
2022/09/16 01:13:11;;;;;;;4.67;1.63;;;12.00;99.90;;;;;;5117823;28;20467;-73
2022/09/16 01:16:21;;;;;;;5.00;2.13;;;12.10;99.90;;;;;;5115806;27;20456;-73
2022/09/16 01:19:42;;;;;;;2.90;1.67;;;12.10;99.90;;;;;;5117476;28;20444;-73
2022/09/16 01:23:11;;;;;;;3.27;1.60;;;12.10;99.90;;;;;;5122863;28;21022;-73
2022/09/16 01:26:34;;;;;;;2.63;1.47;;;12.00;99.90;;;;;;5114858;27;20446;-72
2022/09/16 01:30:03;;;;;;;3.27;1.43;;;12.00;99.90;;;;;;5118878;28;20451;-73
2022/09/16 01:33:14;;;;;;;3.03;1.57;;;12.00;99.90;;;;;;5117984;27;20570;-73
2022/09/16 01:36:45;;;;;;;4.33;2.00;;;12.00;99.90;;;;;;5124229;27;20496;-73
2022/09/16 01:39:59;;;;;;;4.10;1.67;;;12.00;99.90;;;;;;5128759;27;20940;-72
2022/09/16 01:46:23;;;;;;;3.80;1.80;;;11.90;99.90;;;;;;5128187;27;20481;-73
2022/09/16 01:49:41;;;;;;;1.93;1.20;;;11.90;99.90;;;;;;5123344;27;20626;-73
2022/09/16 01:52:58;;;;;;;2.20;1.53;;;11.90;99.90;;;;;;5121374;27;20494;-72
2022/09/16 01:56:09;;;;;;;2.20;1.40;;;11.90;99.90;;;;;;5125653;27;20478;-72
2022/09/16 01:59:23;;;;;;;2.23;1.50;;;11.90;99.90;;;;;;5125227;27;20817;-72
2022/09/16 02:02:39;;;;;;;;;;;;;;;;;;;;;
2022/09/16 02:05:46;;;;;;;2.50;2.00;;;11.80;99.90;;;;;;5123189;27;20486;-72
2022/09/16 02:08:52;;;;;;;2.70;1.87;;;11.80;99.90;;;;;;5117701;27;20458;-72
2022/09/16 02:12:15;;;;;;;2.77;1.97;;;11.80;99.90;;;;;;5122678;27;23900;-72
2022/09/16 02:15:17;;;;;;;4.00;1.83;;;11.80;99.90;;;;;;5124571;27;20475;-72
2022/09/16 02:18:20;;;;;;;5.40;2.60;;;11.80;99.90;;;;;;5120354;27;20447;-73
2022/09/16 02:21:28;;;;;;;4.10;2.63;;;11.70;99.90;;;;;;5116713;27;20459;-72
2022/09/16 02:24:34;;;;;;;2.33;1.90;;;11.70;99.90;;;;;;5122115;27;20553;-72
2022/09/16 02:27:37;;;;;;;3.27;2.20;;;11.70;99.90;;;;;;5121281;27;20462;-72
2022/09/16 02:30:50;;;;;;;2.93;2.27;;;11.70;99.90;;;;;;5127047;27;21446;-72
2022/09/16 02:34:10;;;;;;;2.73;2.20;;;11.70;99.90;;;;;;5125524;27;20491;-72
2022/09/16 02:37:33;;;;;;;2.80;2.20;;;11.60;99.90;;;;;;5122554;27;20443;-72
2022/09/16 02:41:15;;;;;;;2.40;2.20;;;11.60;99.90;;;;;;5121609;27;20896;-72
2022/09/16 02:47:43;;;;;;;2.50;2.27;;;11.70;99.90;;;;;;5124619;27;20819;-71
2022/09/16 02:51:04;;;;;;;2.47;2.00;;;11.70;99.90;;;;;;5120258;27;20474;-71
2022/09/16 02:54:51;;;;;;;2.90;1.87;;;11.70;99.90;;;;;;5112815;27;20521;-71
2022/09/16 02:58:20;;;;;;;2.87;1.90;;;11.70;99.90;;;;;;5116054;27;20486;-72
2022/09/16 03:01:52;;;;;;;5.10;2.20;;;11.70;99.90;;;;;;5117718;27;20462;-72
2022/09/16 03:04:59;;;;;;;2.73;1.83;;;11.70;99.90;;;;;;5109650;27;20478;-72
2022/09/16 03:08:16;;;;;;;1.97;1.73;;;11.70;99.90;;;;;;5115848;27;21194;-71
2022/09/16 03:11:46;;;;;;;2.20;2.00;;;11.70;99.90;;;;;;5110449;27;20489;-72
2022/09/16 03:15:26;;;;;;;2.80;1.57;;;11.70;99.90;;;;;;5116744;27;20463;-73
2022/09/16 03:19:14;;;;;;;8.80;2.20;;;11.60;99.90;;;;;;5098336;27;20485;-71
2022/09/16 03:22:30;;;;;;;3.03;1.47;;;11.60;99.90;;;;;;5118614;27;20628;-71
2022/09/16 03:25:55;;;;;;;4.50;1.90;;;11.60;99.90;;;;;;5119942;27;20592;-72
2022/09/16 03:29:12;;;;;;;4.40;1.97;;;11.60;99.90;;;;;;5116144;27;20446;-71
2022/09/16 03:32:14;;;;;;;4.50;1.97;;;11.60;99.90;;;;;;5118194;27;20467;-72
2022/09/16 03:35:20;;;;;;;4.50;2.30;;;11.60;99.90;;;;;;5115475;27;20561;-71
2022/09/16 03:38:28;;;;;;;;;;;;;;;;;;;;;
2022/09/16 03:44:47;;;;;;;4.63;2.00;;;11.50;99.90;;;;;;5119530;27;20466;-71
2022/09/16 03:47:57;;;;;;;5.20;2.20;;;11.50;99.90;;;;;;5122167;27;20959;-72
2022/09/16 03:51:09;;;;;;;4.60;2.03;;;11.50;99.90;;;;;;5118158;27;20463;-72
2022/09/16 03:54:02;;;;;;;2.53;2.20;;;11.50;99.90;;;;;;5120250;27;20502;-72
2022/09/16 03:57:34;;;;;;;;;;;;;;;;;;;;;
2022/09/16 04:00:34;;;;;;;6.43;2.40;;;11.40;99.90;;;;;;5117519;27;20922;-71
2022/09/16 04:03:56;;;;;;;;;;;;;;;;;;;;;
2022/09/16 04:06:59;;;;;;;3.27;2.03;;;11.50;99.90;;;;;;5122783;27;20450;-72
2022/09/16 04:10:11;;;;;;;4.00;2.30;;;11.50;99.90;;;;;;5118884;27;20471;-72
2022/09/16 04:13:23;;;;;;;1.83;1.73;;;11.50;99.90;;;;;;5111830;27;20615;-72
2022/09/16 04:16:23;;;;;;;5.50;2.30;;;11.50;99.90;;;;;;5109073;27;20981;-71
2022/09/16 04:19:42;;;;;;;3.23;2.37;;;11.50;99.90;;;;;;5118592;27;20938;-71
2022/09/16 04:22:59;;;;;;;3.23;1.80;;;11.50;99.90;;;;;;5111537;27;21047;-71
2022/09/16 04:26:19;;;;;;;3.17;1.93;;;11.40;99.90;;;;;;5120147;27;20482;-72
2022/09/16 04:29:24;;;;;;;2.40;1.77;;;11.40;99.90;;;;;;5118702;27;20968;-72
2022/09/16 04:32:31;;;;;;;3.37;1.90;;;11.40;99.90;;;;;;5122755;27;20471;-72
2022/09/16 04:35:40;;;;;;;4.60;2.00;;;11.40;99.90;;;;;;5118080;27;20458;-72
2022/09/16 04:38:59;;;;;;;3.97;2.27;;;11.40;99.90;;;;;;5123524;27;20531;-72
2022/09/16 04:41:59;;;;;;;4.03;2.70;;;11.40;99.90;;;;;;5118218;27;20481;-72
2022/09/16 04:45:06;;;;;;;2.80;2.30;;;11.30;99.90;;;;;;5125646;27;20463;-72
2022/09/16 04:48:14;;;;;;;4.00;2.03;;;11.30;99.90;;;;;;5120696;27;20468;-72
2022/09/16 04:51:14;;;;;;;2.77;2.10;;;11.30;99.90;;;;;;5120945;27;20467;-71
2022/09/16 04:54:26;;;;;;;3.07;2.10;;;11.30;99.90;;;;;;5120535;28;20478;-72
2022/09/16 04:57:45;;;;;;;5.20;2.27;;;11.30;99.90;;;;;;5118947;28;20447;-71
2022/09/16 05:00:47;;;;;;;6.47;2.30;;;11.30;99.90;;;;;;5122885;28;20443;-71
2022/09/16 05:03:59;;;;;;;2.13;1.80;;;11.30;99.90;;;;;;5109742;27;20933;-72
2022/09/16 05:07:28;;;;;;;2.50;2.00;;;11.30;99.90;;;;;;5110680;28;21465;-71
2022/09/16 05:10:35;;;;;;;4.03;1.93;;;11.30;99.90;;;;;;5089830;27;20459;-72
2022/09/16 05:13:47;;;;;;;2.43;2.13;;;11.30;99.90;;;;;;5110640;27;20485;-72
2022/09/16 05:20:37;;;;;;;2.83;2.00;;;11.40;99.90;;;;;;5103259;27;20966;-72
2022/09/16 05:23:31;;;;;;;4.30;2.47;;;11.30;99.90;;;;;;5114768;27;20482;-72
2022/09/16 05:30:26;;;;;;;2.53;2.33;;;11.30;99.90;;;;;;5110263;27;20458;-71
2022/09/16 05:33:48;;;;;;;6.37;2.90;;;11.30;99.90;;;;;;5116135;27;20489;-71
2022/09/16 05:43:30;;;;;;;4.57;2.37;;;11.40;99.90;;;;;;5103524;27;20482;-71
2022/09/16 05:46:23;;;;;;;3.13;2.00;;;11.40;99.90;;;;;;5114778;27;20458;-71
2022/09/16 05:49:19;;;;;;;4.17;2.30;;;11.40;99.90;;;;;;5098949;27;20467;-71
2022/09/16 05:52:08;;;;;;;3.20;1.93;;;11.40;99.90;;;;;;5109660;27;20962;-71
2022/09/16 05:54:57;;;;;;;2.97;2.07;;;11.40;99.90;;;;;;5112298;27;20475;-71
2022/09/16 05:57:54;;;;;;;6.60;2.00;;;11.40;99.90;;;;;;5113049;27;20454;-71
2022/09/16 06:00:50;;;;;;;2.50;1.77;;;11.40;99.90;;;;;;5121736;27;20446;-71
2022/09/16 06:03:39;;;;;;;4.97;2.60;;;11.40;99.90;;;;;;5120802;27;21270;-71
2022/09/16 06:06:29;;;;;;;4.30;1.70;;;11.40;99.90;;;;;;5119262;27;20463;-71
2022/09/16 06:09:25;;;;;;;2.50;1.73;;;11.40;99.90;;;;;;5108045;27;20449;-71
2022/09/16 06:12:13;;;;;;;3.70;1.70;;;11.40;99.90;;;;;;5091400;27;20483;-72
2022/09/16 06:15:01;;;;;;;2.60;1.60;;;11.40;99.90;;;;;;5120242;27;20539;-71
2022/09/16 06:17:49;;;;;;;2.90;1.53;;;11.40;99.90;;;;;;5113587;27;20544;-71
2022/09/16 06:20:37;;;;;;;6.27;2.10;;;11.50;99.90;;;;;;5119825;27;20973;-71
2022/09/16 06:23:26;;;;;;;4.30;2.10;;;11.50;99.90;;;;;;5107132;27;20477;-72
2022/09/16 06:26:18;;;;;;;4.20;1.90;;;11.50;99.90;;;;;;5114419;27;20466;-71
2022/09/16 06:29:06;;;;;;;6.43;2.33;;;11.50;99.90;;;;;;5110354;27;21236;-71
2022/09/16 06:31:56;;;;;;;3.50;2.00;;;11.50;99.90;;;;;;5116256;27;20475;-71
2022/09/16 06:34:46;;;;;;;3.10;1.70;;;11.60;99.90;;;;;;5112386;27;20470;-71
2022/09/16 06:37:34;;;;;;;3.17;1.70;;;11.70;99.90;;;;;;5115315;27;20512;-72
2022/09/16 06:40:23;;;;;;;1.90;1.57;;;11.90;99.90;;;;;;5121330;27;20438;-71
2022/09/16 06:43:13;;;;;;;4.20;1.80;;;12.00;99.90;;;;;;5123449;27;20479;-72
2022/09/16 06:46:03;;;;;;;3.60;1.80;;;12.00;99.90;;;;;;5120556;27;20450;-72
2022/09/16 06:48:55;;;;;;;3.53;1.60;;;11.90;99.90;;;;;;5112330;27;20452;-72
2022/09/16 06:51:46;;;;;;;2.40;1.40;;;11.90;99.90;;;;;;5116442;27;20608;-71
2022/09/16 06:54:37;;;;;;;3.10;2.20;;;11.80;99.90;;;;;;5097196;27;20467;-71
2022/09/16 06:57:26;;;;;;;6.30;1.87;;;11.80;99.90;;;;;;5114769;27;20447;-71
2022/09/16 07:00:18;;;;;;;5.00;1.43;;;11.90;99.90;;;;;;5122262;27;20439;-71
2022/09/16 07:03:07;;;;;;;5.20;1.80;;;11.90;99.90;;;;;;5122327;27;20485;-71
2022/09/16 07:05:56;;;;;;;4.27;1.53;;;11.90;99.90;;;;;;5125018;27;21414;-71
2022/09/16 07:08:45;;;;;;;3.70;1.37;;;11.90;99.90;;;;;;5122366;27;20447;-71
2022/09/16 07:11:39;;;;;;;3.60;1.50;;;11.90;99.90;;;;;;5115924;27;20475;-71
2022/09/16 07:14:31;;;;;;;5.30;1.27;;;11.90;99.90;;;;;;5122114;27;20985;-71
2022/09/16 07:17:22;;;;;;;2.87;1.30;;;12.00;99.90;;;;;;5119199;27;20825;-71
2022/09/16 07:20:12;;;;;;;3.83;1.60;;;12.00;99.90;;;;;;5120636;27;20448;-72
2022/09/16 07:23:00;;;;;;;2.60;1.17;;;12.10;99.90;;;;;;5115398;27;20466;-71
2022/09/16 07:25:51;;;;;;;3.10;1.60;;;12.10;99.90;;;;;;5118640;27;20455;-72
2022/09/16 07:28:40;;;;;;;3.90;1.57;;;12.20;99.90;;;;;;5120446;27;20454;-72
2022/09/16 07:31:33;;;;;;;7.90;1.97;;;12.20;99.90;;;;;;5116301;27;21028;-72
2022/09/16 07:34:22;;;;;;;5.67;2.17;;;12.20;99.90;;;;;;5121157;27;20592;-72
2022/09/16 07:37:11;;;;;;;2.83;1.03;;;12.20;99.90;;;;;;5117775;27;20452;-71
2022/09/16 07:39:59;;;;;;;3.93;1.63;;;12.20;99.90;;;;;;5118822;27;20455;-71
2022/09/16 07:42:50;;;;;;;1.80;1.13;;;12.30;99.90;;;;;;5107747;27;20480;-71
2022/09/16 07:45:41;;;;;;;2.40;1.10;;;12.30;99.90;;;;;;5109672;27;20478;-71
2022/09/16 07:48:30;;;;;;;8.17;1.90;;;12.30;99.90;;;;;;5107499;27;20836;-72
2022/09/16 07:51:25;;;;;;;4.60;1.60;;;12.40;99.90;;;;;;5107185;27;21176;-72
2022/09/16 07:54:15;;;;;;;5.30;1.37;;;12.40;99.90;;;;;;5110202;27;20466;-71
2022/09/16 07:57:07;;;;;;;4.53;1.27;;;12.50;99.90;;;;;;5120541;27;20439;-72
2022/09/16 07:59:56;;;;;;;4.13;1.27;;;12.60;99.90;;;;;;5118618;27;20477;-71
2022/09/16 08:02:46;;;;;;;1.30;1.20;;;12.70;99.90;;;;;;5120144;27;21014;-71
2022/09/16 08:05:34;;;;;;;7.87;1.90;;;12.80;99.90;;;;;;5121133;27;20486;-71
2022/09/16 08:08:28;;;;;;;6.87;1.60;;;12.80;99.90;;;;;;5120431;27;20539;-72
2022/09/16 08:11:21;;;;;;;5.07;1.50;;;12.80;99.90;;;;;;5118892;27;20486;-71
2022/09/16 08:14:15;;;;;;;5.90;1.50;;;12.80;99.90;;;;;;5119963;27;20463;-71
2022/09/16 08:17:03;;;;;;;4.50;1.27;;;12.70;99.90;;;;;;5120085;27;20482;-72
2022/09/16 08:19:52;;;;;;;4.30;1.27;;;12.70;99.90;;;;;;5117038;27;20473;-72
2022/09/16 08:22:40;;;;;;;4.23;1.23;;;12.80;99.90;;;;;;5114254;27;20471;-71
2022/09/16 08:25:32;;;;;;;6.50;1.20;;;12.80;99.90;;;;;;5120401;27;20479;-71
2022/09/16 08:28:20;;;;;;;5.37;1.30;;;12.90;99.90;;;;;;5114740;27;20966;-71
2022/09/16 08:31:09;;;;;;;1.97;1.23;;;12.90;99.90;;;;;;5115617;27;21001;-71
2022/09/16 08:33:58;;;;;;;3.20;1.10;;;13.00;99.90;;;;;;5117683;27;20467;-72
2022/09/16 08:36:48;;;;;;;7.40;1.40;;;13.00;99.90;;;;;;5117964;27;20452;-71
2022/09/16 08:39:36;;;;;;;6.43;1.33;;;13.10;99.90;;;;;;5117621;27;20451;-72
2022/09/16 08:42:41;;;;;;;2.60;1.30;;;13.10;99.90;;;;;;5114020;27;20475;-71
2022/09/16 08:45:37;;;;;;;4.40;1.40;;;13.20;99.90;;;;;;5117013;27;20886;-71
2022/09/16 08:48:36;;;;;;;3.40;1.33;;;13.10;99.90;;;;;;5119239;27;20454;-71
2022/09/16 08:51:27;;;;;;;3.20;1.07;;;13.10;99.90;;;;;;5118000;28;20489;-71
2022/09/16 08:54:27;;;;;;;3.13;1.50;;;13.20;99.90;;;;;;5114352;28;20561;-72
2022/09/16 08:57:20;;;;;;;3.30;1.23;;;13.10;99.90;;;;;;5117990;27;20483;-71
2022/09/16 09:00:17;;;;;;;2.50;1.07;;;13.20;99.90;;;;;;5120323;28;20554;-72
2022/09/16 09:03:16;;;;;;;3.87;1.77;;;13.30;99.90;;;;;;5118296;28;20475;-71
2022/09/16 09:06:14;;;;;;;4.20;1.20;;;13.30;99.90;;;;;;5117455;28;20474;-71
2022/09/16 09:09:15;;;;;;;2.60;1.13;;;13.30;99.90;;;;;;5113104;27;20557;-72
2022/09/16 09:12:10;;;;;;;6.50;1.50;;;13.30;99.90;;;;;;5117525;27;20474;-72
2022/09/16 09:15:13;;;;;;;2.90;1.10;;;13.30;99.90;;;;;;5118565;28;20844;-71
2022/09/16 09:18:23;;;;;;;4.93;1.70;;;13.40;99.90;;;;;;5120133;27;20442;-72
2022/09/16 09:21:21;;;;;;;4.50;2.00;;;13.50;99.90;;;;;;5117104;28;20571;-71
2022/09/16 09:24:39;;;;;;;7.50;1.70;;;13.60;99.90;;;;;;5121605;28;20873;-71
2022/09/16 09:27:34;;;;;;;5.37;1.93;;;13.70;99.90;;;;;;5110576;27;20460;-70
2022/09/16 09:30:27;;;;;;;3.77;1.17;;;13.70;99.90;;;;;;5119809;28;20860;-71
2022/09/16 09:33:25;;;;;;;7.17;1.40;;;13.70;99.90;;;;;;5123124;28;20475;-70
2022/09/16 09:36:46;;;;;;;4.53;1.70;;;13.70;99.90;;;;;;5122088;28;20459;-70
2022/09/16 09:39:51;;;;;;;5.40;1.33;;;13.70;99.90;;;;;;5109869;28;20547;-70
2022/09/16 09:42:48;;;;;;;3.53;1.50;;;13.70;99.90;;;;;;5118644;27;20836;-71
2022/09/16 09:45:43;;;;;;;3.93;1.27;;;13.70;99.90;;;;;;5121778;28;20482;-70
2022/09/16 09:48:36;;;;;;;5.27;1.27;;;13.70;99.90;;;;;;5119217;28;20454;-73
2022/09/16 09:51:30;;;;;;;3.40;1.10;;;13.70;99.90;;;;;;5120601;28;20482;-71
2022/09/16 09:54:28;;;;;;;2.53;1.13;;;13.80;99.90;;;;;;5118964;28;20490;-72
2022/09/16 09:57:22;;;;;;;2.30;1.23;;;13.80;99.90;;;;;;5118964;27;20478;-72
2022/09/16 10:00:15;;;;;;;4.63;1.10;;;13.80;99.90;;;;;;5124607;27;20450;-73
2022/09/16 10:03:10;;;;;;;4.37;1.30;;;13.80;99.90;;;;;;5115154;27;20482;-73
2022/09/16 10:05:59;;;;;;;6.27;1.27;;;13.90;99.90;;;;;;5124100;27;20848;-71
2022/09/16 10:08:50;;;;;;;3.23;1.20;;;14.00;99.90;;;;;;5124164;27;21110;-70
2022/09/16 10:11:47;;;;;;;2.23;1.00;;;14.00;99.90;;;;;;5120132;27;20486;-71
2022/09/16 10:14:37;;;;;;;3.40;1.20;;;14.20;99.90;;;;;;5125410;27;20914;-71
2022/09/16 10:17:28;;;;;;;3.77;1.57;;;14.30;99.90;;;;;;5113350;27;21022;-72
2022/09/16 10:20:26;;;;;;;5.63;1.80;;;14.30;99.90;;;;;;5112102;27;20540;-70
2022/09/16 10:23:22;;;;;;;4.90;1.30;;;14.30;99.90;;;;;;5108160;27;20565;-70
2022/09/16 10:26:21;;;;;;;3.23;1.17;;;14.40;99.90;;;;;;5109225;27;20470;-72
2022/09/16 10:29:16;;;;;;;5.43;1.60;;;14.50;99.90;;;;;;5117703;27;20451;-71
2022/09/16 10:32:08;;;;;;;2.60;1.10;;;14.60;99.90;;;;;;5110767;27;21213;-71
2022/09/16 10:34:57;;;;;;;4.40;1.50;;;14.60;99.90;;;;;;5107729;27;20463;-70
2022/09/16 10:37:54;;;;;;;3.17;1.30;;;14.70;99.90;;;;;;5119153;27;20884;-71
2022/09/16 10:40:51;;;;;;;3.07;1.30;;;14.90;99.90;;;;;;5115560;27;20503;-71
2022/09/16 10:43:49;;;;;;;5.90;1.17;;;15.00;99.90;;;;;;5114605;27;21130;-73
2022/09/16 10:46:38;;;;;;;4.87;1.67;;;15.10;99.90;;;;;;5117148;27;20524;-72
2022/09/16 10:49:34;;;;;;;6.60;1.30;;;15.10;99.90;;;;;;5118967;27;20553;-72
2022/09/16 10:52:24;;;;;;;4.23;1.33;;;15.20;99.90;;;;;;5113502;27;20498;-74
2022/09/16 10:55:28;;;;;;;3.03;1.07;;;15.30;99.90;;;;;;5099954;27;20478;-72
2022/09/16 10:58:18;;;;;;;5.03;1.23;;;15.40;99.90;;;;;;5093530;27;20447;-71
2022/09/16 11:01:25;;;;;;;3.63;1.40;;;15.50;99.90;;;;;;5101923;27;20628;-71
2022/09/16 11:04:39;;;;;;;2.00;0.87;;;15.60;99.90;;;;;;5114918;27;20526;-71
2022/09/16 11:07:42;;;;;;;5.10;1.57;;;15.70;99.90;;;;;;5113505;27;20568;-71
2022/09/16 11:10:38;;;;;;;3.67;1.20;;;15.80;99.90;;;;;;5119206;27;20480;-71
2022/09/16 11:13:41;;;;;;;5.60;1.27;;;16.00;99.90;;;;;;5112173;27;20491;-71
2022/09/16 11:16:58;;;;;;;3.90;0.90;;;16.00;99.90;;;;;;5110882;27;20537;-71
2022/09/16 11:19:58;;;;;;;3.33;1.20;;;16.10;99.90;;;;;;5112721;27;22660;-71
2022/09/16 11:22:56;;;;;;;2.20;1.00;;;16.10;99.90;;;;;;5107479;27;20483;-71
2022/09/16 11:25:52;;;;;;;4.90;1.27;;;15.90;99.90;;;;;;5105744;27;20471;-71
2022/09/16 11:29:14;;;;;;;6.00;1.60;;;15.50;99.90;;;;;;5114031;27;20443;-72
2022/09/16 11:32:13;;;;;;;4.40;1.20;;;15.40;99.90;;;;;;5113724;27;20539;-71
2022/09/16 11:35:38;;;;;;;5.43;1.47;;;15.10;99.90;;;;;;5115812;27;20573;-71
2022/09/16 11:38:37;;;;;;;3.50;1.00;;;15.00;99.90;;;;;;5113645;27;20836;-71
2022/09/16 11:41:41;;;;;;;2.73;1.00;;;14.90;99.90;;;;;;5116113;27;20835;-71
2022/09/16 11:44:42;;;;;;;1.60;1.10;;;14.90;99.90;;;;;;5105550;27;20463;-73
2022/09/16 11:47:44;;;;;;;2.57;1.10;;;14.90;99.90;;;;;;5108021;27;20455;-72
2022/09/16 11:50:44;;;;;;;3.37;1.17;;;14.90;99.90;;;;;;5114591;27;20553;-74
2022/09/16 11:53:58;;;;;;;4.70;1.27;;;15.00;99.90;;;;;;5098476;27;20486;-74
2022/09/16 11:56:52;;;;;;;3.93;1.13;;;15.10;99.90;;;;;;5111703;27;21017;-71
2022/09/16 11:59:57;;;;;;;3.03;1.17;;;15.20;99.90;;;;;;5107086;27;20553;-74
2022/09/16 12:02:52;;;;;;;6.50;1.73;;;15.30;99.90;;;;;;5107978;27;20470;-74
2022/09/16 12:05:44;;;;;;;1.83;1.10;;;15.50;99.90;;;;;;5108746;27;20569;-75
2022/09/16 12:08:48;;;;;;;6.57;1.40;;;15.70;99.90;;;;;;5107190;27;20592;-74
2022/09/16 12:11:45;;;;;;;5.90;1.40;;;15.90;99.90;;;;;;5109804;27;20525;-74
2022/09/16 12:14:40;;;;;;;2.67;1.80;;;16.00;99.90;;;;;;5106528;27;20454;-74
2022/09/16 12:17:31;;;;;;;5.60;1.30;;;16.00;99.90;;;;;;5118212;27;20432;-74
2022/09/16 12:20:23;;;;;;;5.23;1.80;;;16.10;99.90;;;;;;5118193;27;20438;-74
2022/09/16 12:23:18;;;;;;;7.90;1.40;;;16.00;99.90;;;;;;5105246;27;21229;-74
2022/09/16 12:26:10;;;;;;;6.40;1.60;;;16.10;99.90;;;;;;5110510;27;20529;-74
2022/09/16 12:29:09;;;;;;;4.63;1.43;;;15.80;99.90;;;;;;5108943;27;20544;-74
2022/09/16 12:32:04;;;;;;;5.90;1.40;;;15.40;99.90;;;;;;5104147;27;20607;-73
2022/09/16 12:34:57;;;;;;;3.07;1.00;;;15.20;99.90;;;;;;5096010;27;21483;-71
2022/09/16 12:37:48;;;;;;;3.47;1.30;;;15.10;99.90;;;;;;5101260;27;20446;-71
2022/09/16 12:40:52;;;;;;;6.53;2.00;;;15.10;99.90;;;;;;5111164;27;20962;-71
2022/09/16 12:44:03;;;;;;;3.03;0.83;;;15.20;99.90;;;;;;5110161;27;21189;-71
2022/09/16 12:47:28;;;;;;;4.20;1.60;;;15.30;99.90;;;;;;5107257;27;20518;-72
2022/09/16 12:50:36;;;;;;;3.53;1.40;;;15.50;99.90;;;;;;5105813;27;20841;-71
2022/09/16 12:53:49;;;;;;;5.10;1.13;;;15.90;99.90;;;;;;5106152;27;21088;-71
2022/09/16 12:56:51;;;;;;;4.10;1.30;;;16.10;99.90;;;;;;5101520;27;21052;-71
2022/09/16 13:00:10;;;;;;;7.20;1.43;;;15.60;99.90;;;;;;5106352;28;20962;-71
2022/09/16 13:03:07;;;;;;;5.30;1.20;;;15.40;99.90;;;;;;5103872;27;20555;-72
2022/09/16 13:05:59;;;;;;;3.77;1.70;;;15.50;99.90;;;;;;5112289;28;20511;-72
2022/09/16 13:08:51;;;;;;;3.37;1.37;;;16.10;99.90;;;;;;5104810;27;20557;-72
2022/09/16 13:11:40;;;;;;;2.40;0.90;;;16.80;99.90;;;;;;5097219;27;20640;-71
2022/09/16 13:14:53;;;;;;;4.90;1.40;;;17.40;99.90;;;;;;5108002;27;20514;-72
2022/09/16 13:17:41;;;;;;;2.53;1.13;;;17.40;99.90;;;;;;5111048;27;20476;-72
2022/09/16 13:20:33;;;;;;;1.90;0.60;;;16.90;99.90;;;;;;5113792;28;20633;-72
2022/09/16 13:23:25;;;;;;;2.93;1.00;;;16.70;99.90;;;;;;5107047;27;20957;-73
2022/09/16 13:26:13;;;;;;;2.00;0.73;;;16.50;99.90;;;;;;5101487;27;20525;-72
2022/09/16 13:29:02;;;;;;;3.73;1.40;;;16.20;99.90;;;;;;5109237;27;20486;-72
2022/09/16 13:31:50;;;;;;;2.83;1.10;;;16.00;99.90;;;;;;5111504;27;20871;-73
2022/09/16 13:34:38;;;;;;;3.93;1.40;;;15.80;99.90;;;;;;5114236;27;20470;-72
2022/09/16 13:37:28;;;;;;;4.03;0.97;;;15.40;99.90;;;;;;5119411;27;20534;-72
2022/09/16 13:40:18;;;;;;;4.30;1.20;;;15.10;99.90;;;;;;5114772;27;20451;-72
2022/09/16 13:43:14;;;;;;;4.70;1.10;;;15.00;99.90;;;;;;5116702;27;20486;-72
2022/09/16 13:46:08;;;;;;;1.90;1.00;;;14.80;99.90;;;;;;5106509;27;21778;-72
2022/09/16 13:49:09;;;;;;;6.10;1.00;;;14.70;99.90;;;;;;5106852;27;20538;-72
2022/09/16 13:51:58;;;;;;;1.47;0.90;;;14.60;99.90;;;;;;5109669;27;20594;-72
2022/09/16 13:54:50;;;;;;;3.30;0.97;;;14.50;99.90;;;;;;5110195;27;20527;-72
2022/09/16 13:58:02;;;;;;;2.73;0.97;;;14.40;99.90;;;;;;5122958;27;20431;-72
2022/09/16 14:01:00;;;;;;;3.50;1.00;;;14.20;99.90;;;;;;5117610;27;20448;-72
2022/09/16 14:03:58;;;;;;;3.47;1.57;;;14.10;99.90;;;;;;5109018;27;21588;-72
2022/09/16 14:07:07;;;;;;;3.40;1.20;;;13.90;99.90;;;;;;5110642;27;22930;-72
2022/09/16 14:10:02;;;;;;;3.40;1.10;;;13.80;99.90;;;;;;5119416;27;20457;-72
2022/09/16 14:12:59;;;;;;;3.80;1.33;;;13.60;99.90;;;;;;5111268;27;20483;-72
2022/09/16 14:15:50;;;;;;;4.10;1.20;;;13.60;99.90;;;;;;5116910;27;22599;-72
2022/09/16 14:18:55;;;;;;;4.00;1.30;;;13.50;99.90;;;;;;5115821;27;20483;-72
2022/09/16 14:21:45;;;;;;;4.20;1.00;;;13.40;99.90;;;;;;5105322;27;21028;-72
2022/09/16 14:24:36;;;;;;;3.10;1.20;;;13.30;99.90;;;;;;5115704;27;20471;-73
2022/09/16 14:27:32;;;;;;;2.77;0.90;;;13.30;99.90;;;;;;5101113;27;21188;-73
2022/09/16 14:30:22;;;;;;;5.17;1.20;;;13.20;99.90;;;;;;5112315;27;20465;-72
2022/09/16 14:33:15;;;;;;;3.60;1.10;;;13.10;99.90;;;;;;5099006;27;21028;-72
2022/09/16 14:36:11;;;;;;;3.17;1.10;;;13.10;99.90;;;;;;5108221;27;20451;-72
2022/09/16 14:39:02;;;;;;;2.67;1.00;;;13.00;99.90;;;;;;5103657;27;20448;-73
2022/09/16 14:41:52;;;;;;;4.87;1.00;;;13.00;99.90;;;;;;5111285;27;20471;-72
2022/09/16 14:44:46;;;;;;;3.70;1.17;;;12.80;99.90;;;;;;5120055;27;20471;-72
2022/09/16 14:47:38;;;;;;;3.23;1.43;;;12.60;99.90;;;;;;5115701;27;20477;-72
2022/09/16 14:50:42;;;;;;;2.67;1.30;;;12.60;99.90;;;;;;5110426;27;20458;-72
2022/09/16 14:53:32;;;;;;;2.40;1.00;;;12.60;99.90;;;;;;5107454;27;20491;-72
2022/09/16 14:56:26;;;;;;;3.97;1.20;;;12.60;99.90;;;;;;5116973;27;20474;-72
2022/09/16 14:59:15;;;;;;;4.30;1.50;;;12.40;99.90;;;;;;5122692;27;20435;-72
2022/09/16 15:02:12;;;;;;;3.10;1.13;;;12.50;99.90;;;;;;5110283;27;20475;-72
2022/09/16 15:05:19;;;;;;;5.73;1.20;;;12.50;99.90;;;;;;5096596;27;20500;-72
2022/09/16 15:08:14;;;;;;;6.20;1.57;;;12.40;99.90;;;;;;5117976;27;20843;-72
2022/09/16 15:11:09;;;;;;;3.50;1.20;;;12.50;99.90;;;;;;5114700;27;20447;-72
2022/09/16 15:14:18;;;;;;;2.70;1.20;;;12.40;99.90;;;;;;5117311;27;20476;-72
2022/09/16 15:17:08;;;;;;;4.40;1.20;;;12.40;99.90;;;;;;5116221;27;20540;-72
2022/09/16 15:19:58;;;;;;;2.30;0.97;;;12.30;99.90;;;;;;5115203;27;20600;-72
2022/09/16 15:22:47;;;;;;;4.73;1.20;;;12.40;99.90;;;;;;5118289;27;20475;-72
2022/09/16 15:25:38;;;;;;;3.40;1.30;;;12.40;99.90;;;;;;5105044;27;20543;-72
2022/09/16 15:28:26;;;;;;;3.23;1.20;;;12.40;99.90;;;;;;5117097;27;20873;-72
2022/09/16 15:31:27;;;;;;;3.50;1.50;;;12.40;99.90;;;;;;5110967;27;21505;-71
2022/09/16 15:34:23;;;;;;;2.40;1.00;;;12.40;99.90;;;;;;5114495;27;20573;-72
2022/09/16 15:37:30;;;;;;;2.40;1.17;;;12.50;99.90;;;;;;5118322;27;20464;-72
2022/09/16 15:40:30;;;;;;;5.50;1.27;;;12.50;99.90;;;;;;5116688;27;20474;-72
2022/09/16 15:43:24;;;;;;;4.67;1.20;;;12.50;99.90;;;;;;5111322;27;21089;-72
2022/09/16 15:46:16;;;;;;;4.60;1.80;;;12.60;99.90;;;;;;5118452;27;20904;-72
2022/09/16 15:49:13;;;;;;;3.50;1.40;;;12.70;99.90;;;;;;5118657;27;20515;-72
2022/09/16 15:52:08;;;;;;;3.63;1.63;;;12.70;99.90;;;;;;5115695;27;20478;-72
2022/09/16 15:55:02;;;;;;;2.20;1.50;;;12.60;99.90;;;;;;5119288;27;20479;-72
2022/09/16 15:57:50;;;;;;;3.30;1.47;;;12.60;99.90;;;;;;5119154;27;20451;-72
2022/09/16 16:01:01;;;;;;;3.90;1.53;;;12.70;99.90;;;;;;5119374;27;20459;-72
2022/09/16 16:03:56;;;;;;;3.23;1.60;;;12.70;99.90;;;;;;5112162;27;20581;-72
2022/09/16 16:06:52;;;;;;;4.47;1.27;;;12.70;99.90;;;;;;5115113;27;20454;-72
2022/09/16 16:09:42;;;;;;;2.70;1.40;;;12.70;99.90;;;;;;5120892;27;20498;-72
2022/09/16 16:12:33;;;;;;;6.13;1.77;;;12.70;99.90;;;;;;5125296;27;20490;-71
2022/09/16 16:15:25;;;;;;;4.13;2.17;;;12.70;99.90;;;;;;5120452;27;20574;-71
2022/09/16 16:18:13;;;;;;;3.13;1.40;;;12.70;99.90;;;;;;5110446;27;20450;-71
2022/09/16 16:21:05;;;;;;;4.80;1.80;;;12.80;99.90;;;;;;5100542;27;20471;-71